Champion — WCZ7631 — position and weather

sailwx.info

Track history (hours):
 
Tides and Currents Weather Stations Pressure Air Temp Water Temp Dewpoint Dewpoint Depression Visibility Wind Speed Wind Dir Waves Ship Positions

Champion

Owner: MC CULLEY MARINE SERVICES INC, FORT PIERCE, FL. More information available from US FCC via Universal Licensing System and Coast Guard Vessel Documentation Center.

Last reported at 2017-Dec-13 19:03 UTC. Time now 2018-Feb-25 04:11 UTC.
Position N 18°20' W 064°48'.
Warning: this ship's position is months out of date.

Length 20 m; draft 1.7 m.

Type: Towing. MMSI: 367005250.

Date/timePositionNaut miles runAvg speedWind from/ knotsBaromVisibWave heightAir tempDewpointWater temp
2017-Dec-13 19:03N 18°20' W 064°48'0 0.0
2017-Dec-13 18:54N 18°20' W 064°48'0 0.0
2017-Dec-13 18:31N 18°20' W 064°48'0 0.0
2017-Dec-13 18:00N 18°20' W 064°48'0 0.0
2017-Dec-13 17:29N 18°20' W 064°48'0 0.0
2017-Dec-13 17:01N 18°20' W 064°48'0 0.0
2017-Dec-13 16:31N 18°20' W 064°48'0 0.0
2017-Dec-13 16:00N 18°20' W 064°48'0 0.0
2017-Dec-13 15:30N 18°20' W 064°48'0 0.0
2017-Dec-13 15:00N 18°20' W 064°48'0 0.0
2017-Dec-13 14:31N 18°20' W 064°48'0 0.0
2017-Dec-13 14:01N 18°20' W 064°48'0 0.0
2017-Dec-13 13:30N 18°20' W 064°48'0 0.0
2017-Dec-13 12:59N 18°20' W 064°48'4 0.1
2017-Dec-12 11:45N 18°18' W 064°52'1 3.7
2017-Dec-12 11:30N 18°18' W 064°52'2 3.6
2017-Dec-12 11:01N 18°18' W 064°54'2 3.7
2017-Dec-12 10:31N 18°19' W 064°56'1 2.3
2017-Dec-12 10:01N 18°20' W 064°57'0 0.1
2017-Dec-12 09:30N 18°20' W 064°57'0 0.0
2017-Dec-12 09:00N 18°20' W 064°57'0 0.0
2017-Dec-12 08:31N 18°20' W 064°57'0 0.0
2017-Dec-12 08:00N 18°20' W 064°57'0 0.0
2017-Dec-12 07:31N 18°20' W 064°57'0 0.0
2017-Dec-12 07:00N 18°20' W 064°57'0 0.0
2017-Dec-12 06:30N 18°20' W 064°57'0 0.0
2017-Dec-12 06:01N 18°20' W 064°57'0 0.0
2017-Dec-12 05:30N 18°20' W 064°57'0 0.0
2017-Dec-12 05:01N 18°20' W 064°57'0 0.0
2017-Dec-12 04:31N 18°20' W 064°57'0 0.0
2017-Dec-12 04:00N 18°20' W 064°57'0 0.0
2017-Dec-12 03:31N 18°20' W 064°57'0 0.0
2017-Dec-12 03:00N 18°20' W 064°57'0 0.0
2017-Dec-12 02:30N 18°20' W 064°57'0 0.0
2017-Dec-12 02:00N 18°20' W 064°57'0 0.0
2017-Dec-12 01:30N 18°20' W 064°57'0 0.0
2017-Dec-12 01:00N 18°20' W 064°57'0 0.0
2017-Dec-12 00:30N 18°20' W 064°57'0 0.0
2017-Dec-12 00:01N 18°20' W 064°57'0 0.0
2017-Dec-11 23:30N 18°20' W 064°57'0 0.0
2017-Dec-11 23:00N 18°20' W 064°57'0 0.0
2017-Dec-11 22:31N 18°20' W 064°57'0 0.0
2017-Dec-11 22:00N 18°20' W 064°57'0 0.0
2017-Dec-11 21:30N 18°20' W 064°57'0 0.0
2017-Dec-11 18:49N 18°20' W 064°57'0 0.0
2017-Dec-11 18:27N 18°20' W 064°57'0 0.0
2017-Dec-11 17:48N 18°20' W 064°57'0 0.0
2017-Dec-11 17:25N 18°20' W 064°57'3 1.2
2017-Dec-11 14:26N 18°18' W 064°54'1 3.4
2017-Dec-11 14:00N 18°19' W 064°55'2 3.0
2017-Dec-11 13:18N 18°20' W 064°57'0 0.1
2017-Dec-11 12:55N 18°20' W 064°57'0 0.0
2017-Dec-11 12:22N 18°20' W 064°57'0 0.0
2017-Dec-11 12:00N 18°20' W 064°57'0 0.0
2017-Dec-11 11:30N 18°20' W 064°57'0 0.0
2017-Dec-11 11:01N 18°20' W 064°57'0 0.0
2017-Dec-11 10:30N 18°20' W 064°57'0 0.0
2017-Dec-11 10:00N 18°20' W 064°57'0 0.0
2017-Dec-11 09:30N 18°20' W 064°57'0 0.0
2017-Dec-11 09:00N 18°20' W 064°57'0 0.0
2017-Dec-11 08:31N 18°20' W 064°57'0 0.0
2017-Dec-11 08:01N 18°20' W 064°57'0 0.0
2017-Dec-11 07:30N 18°20' W 064°57'0 0.0
2017-Dec-11 07:00N 18°20' W 064°57'0 0.0
2017-Dec-11 06:30N 18°20' W 064°57'0 0.0
2017-Dec-11 06:00N 18°20' W 064°57'0 0.0
2017-Dec-11 05:30N 18°20' W 064°57'0 0.0
2017-Dec-11 05:00N 18°20' W 064°57'0 0.0
2017-Dec-11 04:31N 18°20' W 064°57'0 0.0
2017-Dec-11 04:00N 18°20' W 064°57'0 0.0
2017-Dec-11 03:30N 18°20' W 064°57'0 0.0
2017-Dec-11 03:00N 18°20' W 064°57'0 0.0
2017-Dec-11 02:30N 18°20' W 064°57'0 0.0
2017-Dec-11 02:00N 18°20' W 064°57'0 0.0
2017-Dec-11 01:31N 18°20' W 064°57'0 0.0
2017-Dec-11 01:00N 18°20' W 064°57'2 3.1
2017-Dec-11 00:30N 18°19' W 064°56'4 8.3
2017-Dec-11 00:00N 18°15' W 064°54'12 0.8
2017-Dec-10 08:49N 18°03' W 064°49'2 7.1
2017-Dec-10 08:30N 18°05' W 064°50'4 7.0
2017-Dec-10 07:58N 18°09' W 064°52'3 7.0
2017-Dec-10 07:31N 18°12' W 064°53'4 7.2
2017-Dec-10 07:00N 18°15' W 064°54'4 7.3
2017-Dec-10 06:30N 18°19' W 064°56'2 3.1
2017-Dec-10 06:01N 18°20' W 064°57'0 0.0
2017-Dec-10 05:30N 18°20' W 064°57'0 0.0
2017-Dec-10 05:00N 18°20' W 064°57'0 0.0
2017-Dec-10 04:31N 18°20' W 064°57'0 0.0
2017-Dec-10 04:00N 18°20' W 064°57'0 0.0
2017-Dec-10 03:30N 18°20' W 064°57'0 0.0
2017-Dec-10 03:00N 18°20' W 064°57'0 0.0
2017-Dec-10 02:30N 18°20' W 064°57'0 0.0
2017-Dec-10 02:00N 18°20' W 064°57'0 0.0
2017-Dec-10 01:30N 18°20' W 064°57'0 0.0
2017-Dec-10 01:00N 18°20' W 064°57'0 0.0
2017-Dec-10 00:30N 18°20' W 064°57'0 0.0
2017-Dec-10 00:01N 18°20' W 064°57'0 0.0
2017-Dec-09 23:30N 18°20' W 064°57'0 0.0
2017-Dec-09 23:00N 18°20' W 064°57'0 0.0
2017-Dec-09 22:30N 18°20' W 064°57'0 0.0
2017-Dec-09 22:01N 18°20' W 064°57'0 0.0
2017-Dec-09 21:30N 18°20' W 064°57'0 0.0
2017-Dec-09 20:55N 18°20' W 064°57'0 0.0
2017-Dec-09 20:30N 18°20' W 064°57'0 0.0
2017-Dec-09 20:00N 18°20' W 064°57'0 0.0
2017-Dec-09 19:30N 18°20' W 064°57'0 0.0
2017-Dec-09 19:00N 18°20' W 064°57'0 0.0
2017-Dec-09 18:30N 18°20' W 064°57'0 0.0
2017-Dec-09 18:00N 18°20' W 064°57'0 0.0
2017-Dec-09 17:30N 18°20' W 064°57'0 0.0
2017-Dec-09 17:00N 18°20' W 064°57'0 0.0
2017-Dec-09 16:30N 18°20' W 064°57'0 0.0
2017-Dec-09 16:00N 18°20' W 064°57'0 0.0
2017-Dec-09 15:27N 18°20' W 064°57'0 0.0
2017-Dec-09 15:01N 18°20' W 064°57'0 0.0
2017-Dec-09 14:30N 18°20' W 064°57'0 0.0
2017-Dec-09 14:01N 18°20' W 064°57'0 0.0
2017-Dec-09 13:30N 18°20' W 064°57'0 0.0
2017-Dec-09 13:00N 18°20' W 064°57'0 0.0
2017-Dec-09 12:29N 18°20' W 064°57'0 0.0
2017-Dec-09 12:00N 18°20' W 064°57'0 0.0
2017-Dec-09 11:30N 18°20' W 064°57'0 0.0
2017-Dec-09 11:00N 18°20' W 064°57'0 0.0
2017-Dec-09 10:30N 18°20' W 064°57'0 0.0
2017-Dec-09 10:01N 18°20' W 064°57'0 0.0
2017-Dec-09 09:31N 18°20' W 064°57'0 0.0
2017-Dec-09 09:01N 18°20' W 064°57'0 0.0
2017-Dec-09 08:31N 18°20' W 064°57'0 0.0
2017-Dec-09 08:01N 18°20' W 064°57'0 0.0
2017-Dec-09 07:31N 18°20' W 064°57'0 0.0
2017-Dec-09 07:00N 18°20' W 064°57'0 0.0
2017-Dec-09 06:31N 18°20' W 064°57'0 0.0
2017-Dec-09 06:00N 18°20' W 064°57'0 0.0
2017-Dec-09 05:31N 18°20' W 064°57'0 0.0
2017-Dec-09 05:01N 18°20' W 064°57'0 0.0
2017-Dec-09 04:30N 18°20' W 064°57'0 0.0
2017-Dec-09 04:01N 18°20' W 064°57'0 0.0
2017-Dec-09 03:31N 18°20' W 064°57'0 0.0
2017-Dec-09 03:01N 18°20' W 064°57'0 0.0
2017-Dec-09 02:30N 18°20' W 064°57'0 0.0
2017-Dec-09 02:01N 18°20' W 064°57'0 0.0
2017-Dec-09 01:30N 18°20' W 064°57'0 0.0
2017-Dec-09 01:01N 18°20' W 064°57'0 0.0
2017-Dec-09 00:30N 18°20' W 064°57'0 0.0
2017-Dec-09 00:01N 18°20' W 064°57'0 0.0
2017-Dec-08 23:30N 18°20' W 064°57'0 0.0
2017-Dec-08 23:01N 18°20' W 064°57'0 0.0
2017-Dec-08 22:31N 18°20' W 064°57'0 0.5
2017-Dec-08 22:00N 18°20' W 064°57'1 3.0
2017-Dec-08 21:31N 18°20' W 064°58'1 2.1
2017-Dec-08 21:01N 18°20' W 064°59'0 0.4
2017-Dec-08 20:30N 18°20' W 064°59'0 0.1
2017-Dec-08 20:01N 18°20' W 064°59'0 0.0
2017-Dec-08 19:30N 18°20' W 064°59'0 0.0
2017-Dec-08 19:00N 18°20' W 064°59'0 1.0
2017-Dec-08 18:31N 18°20' W 064°59'2 4.9
2017-Dec-08 18:01N 18°20' W 064°57'0 0.1
2017-Dec-08 17:31N 18°20' W 064°57'0 0.1
2017-Dec-08 17:00N 18°20' W 064°57'0 0.0
2017-Dec-08 16:30N 18°20' W 064°57'0 0.1
2017-Dec-08 16:00N 18°20' W 064°57'0 0.1
2017-Dec-08 15:30N 18°20' W 064°57'0 0.0
2017-Dec-08 15:00N 18°20' W 064°57'0 0.0
2017-Dec-08 14:31N 18°20' W 064°57'0 0.0
2017-Dec-08 14:01N 18°20' W 064°57'0 0.0
2017-Dec-07 02:14N 18°20' W 064°57'0 0.0
2017-Dec-07 02:01N 18°20' W 064°57'0 0.0
2017-Dec-07 01:31N 18°20' W 064°57'0 0.0
2017-Dec-07 01:00N 18°20' W 064°57'0 0.0
2017-Dec-07 00:31N 18°20' W 064°57'0 0.0
2017-Dec-07 00:01N 18°20' W 064°57'0 0.5
2017-Dec-06 23:31N 18°20' W 064°57'0 0.2
2017-Dec-06 23:01N 18°20' W 064°57'0 0.0
2017-Dec-06 22:30N 18°20' W 064°57'0 0.0
2017-Dec-06 22:01N 18°20' W 064°57'0 0.0
2017-Dec-06 21:29N 18°20' W 064°57'0 0.0
2017-Dec-06 21:00N 18°20' W 064°57'  
2017-Dec-04 10:30N 18°20' W 064°57'0 0.0
2017-Dec-04 10:00N 18°20' W 064°57'0 0.0
2017-Dec-04 09:28N 18°20' W 064°57'0 0.0
2017-Dec-04 09:00N 18°20' W 064°57'0 0.0
2017-Dec-04 08:30N 18°20' W 064°57'0 0.0
2017-Dec-04 07:56N 18°20' W 064°57'0 0.0
2017-Dec-04 07:30N 18°20' W 064°57'0 0.0
2017-Dec-04 06:57N 18°20' W 064°57'0 0.0
2017-Dec-04 06:30N 18°20' W 064°57'0 0.0
2017-Dec-04 06:00N 18°20' W 064°57'0 0.0
2017-Dec-04 05:31N 18°20' W 064°57'0 0.0
2017-Dec-04 05:00N 18°20' W 064°57'0 0.0
2017-Dec-04 04:31N 18°20' W 064°57'0 0.0
2017-Dec-04 04:00N 18°20' W 064°57'0 0.0
2017-Dec-04 03:30N 18°20' W 064°57'0 0.0
2017-Dec-04 03:00N 18°20' W 064°57'0 0.0
2017-Dec-04 02:30N 18°20' W 064°57'0 0.0
2017-Dec-04 02:01N 18°20' W 064°57'0 0.0
2017-Dec-04 01:29N 18°20' W 064°57'0 0.0
2017-Dec-04 01:00N 18°20' W 064°57'0 0.0
2017-Dec-04 00:30N 18°20' W 064°57'0 0.0
2017-Dec-04 00:00N 18°20' W 064°57'0 0.0
2017-Dec-03 23:31N 18°20' W 064°57'0 0.0
2017-Dec-03 23:01N 18°20' W 064°57'0 0.0
2017-Dec-03 22:30N 18°20' W 064°57'0 0.0
2017-Dec-03 21:58N 18°20' W 064°57'0 0.0
2017-Dec-03 21:31N 18°20' W 064°57'0 0.0
2017-Dec-03 21:01N 18°20' W 064°57'0 0.0
2017-Dec-03 20:31N 18°20' W 064°57'0 0.0
2017-Dec-03 20:01N 18°20' W 064°57'0 0.0
2017-Dec-03 19:31N 18°20' W 064°57'  
Track history (hours):
 
Tides and Currents Weather Stations Pressure Air Temp Water Temp Dewpoint Dewpoint Depression Visibility Wind Speed Wind Dir Waves Ship Positions

Champion

Owner: MC CULLEY MARINE SERVICES INC, FORT PIERCE, FL. More information available from US FCC via Universal Licensing System and Coast Guard Vessel Documentation Center.

Last reported at 2017-Dec-13 19:03 UTC. Time now 2018-Feb-25 04:11 UTC.
Position N 18°20' W 064°48'.
Warning: this ship's position is months out of date.

Length 20 m; draft 1.7 m.

Type: Towing. MMSI: 367005250.

Date/timePositionNaut miles runAvg speedWind from/ knotsBaromVisibWave heightAir tempDewpointWater temp
2017-Dec-13 19:03N 18°20' W 064°48'0 0.0
2017-Dec-13 18:54N 18°20' W 064°48'0 0.0
2017-Dec-13 18:31N 18°20' W 064°48'0 0.0
2017-Dec-13 18:00N 18°20' W 064°48'0 0.0
2017-Dec-13 17:29N 18°20' W 064°48'0 0.0
2017-Dec-13 17:01N 18°20' W 064°48'0 0.0
2017-Dec-13 16:31N 18°20' W 064°48'0 0.0
2017-Dec-13 16:00N 18°20' W 064°48'0 0.0
2017-Dec-13 15:30N 18°20' W 064°48'0 0.0
2017-Dec-13 15:00N 18°20' W 064°48'0 0.0
2017-Dec-13 14:31N 18°20' W 064°48'0 0.0
2017-Dec-13 14:01N 18°20' W 064°48'0 0.0
2017-Dec-13 13:30N 18°20' W 064°48'0 0.0
2017-Dec-13 12:59N 18°20' W 064°48'4 0.1
2017-Dec-12 11:45N 18°18' W 064°52'1 3.7
2017-Dec-12 11:30N 18°18' W 064°52'2 3.6
2017-Dec-12 11:01N 18°18' W 064°54'2 3.7
2017-Dec-12 10:31N 18°19' W 064°56'1 2.3
2017-Dec-12 10:01N 18°20' W 064°57'0 0.1
2017-Dec-12 09:30N 18°20' W 064°57'0 0.0
2017-Dec-12 09:00N 18°20' W 064°57'0 0.0
2017-Dec-12 08:31N 18°20' W 064°57'0 0.0
2017-Dec-12 08:00N 18°20' W 064°57'0 0.0
2017-Dec-12 07:31N 18°20' W 064°57'0 0.0
2017-Dec-12 07:00N 18°20' W 064°57'0 0.0
2017-Dec-12 06:30N 18°20' W 064°57'0 0.0
2017-Dec-12 06:01N 18°20' W 064°57'0 0.0
2017-Dec-12 05:30N 18°20' W 064°57'0 0.0
2017-Dec-12 05:01N 18°20' W 064°57'0 0.0
2017-Dec-12 04:31N 18°20' W 064°57'0 0.0
2017-Dec-12 04:00N 18°20' W 064°57'0 0.0
2017-Dec-12 03:31N 18°20' W 064°57'0 0.0
2017-Dec-12 03:00N 18°20' W 064°57'0 0.0
2017-Dec-12 02:30N 18°20' W 064°57'0 0.0
2017-Dec-12 02:00N 18°20' W 064°57'0 0.0
2017-Dec-12 01:30N 18°20' W 064°57'0 0.0
2017-Dec-12 01:00N 18°20' W 064°57'0 0.0
2017-Dec-12 00:30N 18°20' W 064°57'0 0.0
2017-Dec-12 00:01N 18°20' W 064°57'0 0.0
2017-Dec-11 23:30N 18°20' W 064°57'0 0.0
2017-Dec-11 23:00N 18°20' W 064°57'0 0.0
2017-Dec-11 22:31N 18°20' W 064°57'0 0.0
2017-Dec-11 22:00N 18°20' W 064°57'0 0.0
2017-Dec-11 21:30N 18°20' W 064°57'0 0.0
2017-Dec-11 18:49N 18°20' W 064°57'0 0.0
2017-Dec-11 18:27N 18°20' W 064°57'0 0.0
2017-Dec-11 17:48N 18°20' W 064°57'0 0.0
2017-Dec-11 17:25N 18°20' W 064°57'3 1.2
2017-Dec-11 14:26N 18°18' W 064°54'1 3.4
2017-Dec-11 14:00N 18°19' W 064°55'2 3.0
2017-Dec-11 13:18N 18°20' W 064°57'0 0.1
2017-Dec-11 12:55N 18°20' W 064°57'0 0.0
2017-Dec-11 12:22N 18°20' W 064°57'0 0.0
2017-Dec-11 12:00N 18°20' W 064°57'0 0.0
2017-Dec-11 11:30N 18°20' W 064°57'0 0.0
2017-Dec-11 11:01N 18°20' W 064°57'0 0.0
2017-Dec-11 10:30N 18°20' W 064°57'0 0.0
2017-Dec-11 10:00N 18°20' W 064°57'0 0.0
2017-Dec-11 09:30N 18°20' W 064°57'0 0.0
2017-Dec-11 09:00N 18°20' W 064°57'0 0.0
2017-Dec-11 08:31N 18°20' W 064°57'0 0.0
2017-Dec-11 08:01N 18°20' W 064°57'0 0.0
2017-Dec-11 07:30N 18°20' W 064°57'0 0.0
2017-Dec-11 07:00N 18°20' W 064°57'0 0.0
2017-Dec-11 06:30N 18°20' W 064°57'0 0.0
2017-Dec-11 06:00N 18°20' W 064°57'0 0.0
2017-Dec-11 05:30N 18°20' W 064°57'0 0.0
2017-Dec-11 05:00N 18°20' W 064°57'0 0.0
2017-Dec-11 04:31N 18°20' W 064°57'0 0.0
2017-Dec-11 04:00N 18°20' W 064°57'0 0.0
2017-Dec-11 03:30N 18°20' W 064°57'0 0.0
2017-Dec-11 03:00N 18°20' W 064°57'0 0.0
2017-Dec-11 02:30N 18°20' W 064°57'0 0.0
2017-Dec-11 02:00N 18°20' W 064°57'0 0.0
2017-Dec-11 01:31N 18°20' W 064°57'0 0.0
2017-Dec-11 01:00N 18°20' W 064°57'2 3.1
2017-Dec-11 00:30N 18°19' W 064°56'4 8.3
2017-Dec-11 00:00N 18°15' W 064°54'12 0.8
2017-Dec-10 08:49N 18°03' W 064°49'2 7.1
2017-Dec-10 08:30N 18°05' W 064°50'4 7.0
2017-Dec-10 07:58N 18°09' W 064°52'3 7.0
2017-Dec-10 07:31N 18°12' W 064°53'4 7.2
2017-Dec-10 07:00N 18°15' W 064°54'4 7.3
2017-Dec-10 06:30N 18°19' W 064°56'2 3.1
2017-Dec-10 06:01N 18°20' W 064°57'0 0.0
2017-Dec-10 05:30N 18°20' W 064°57'0 0.0
2017-Dec-10 05:00N 18°20' W 064°57'0 0.0
2017-Dec-10 04:31N 18°20' W 064°57'0 0.0
2017-Dec-10 04:00N 18°20' W 064°57'0 0.0
2017-Dec-10 03:30N 18°20' W 064°57'0 0.0
2017-Dec-10 03:00N 18°20' W 064°57'0 0.0
2017-Dec-10 02:30N 18°20' W 064°57'0 0.0
2017-Dec-10 02:00N 18°20' W 064°57'0 0.0
2017-Dec-10 01:30N 18°20' W 064°57'0 0.0
2017-Dec-10 01:00N 18°20' W 064°57'0 0.0
2017-Dec-10 00:30N 18°20' W 064°57'0 0.0
2017-Dec-10 00:01N 18°20' W 064°57'0 0.0
2017-Dec-09 23:30N 18°20' W 064°57'0 0.0
2017-Dec-09 23:00N 18°20' W 064°57'0 0.0
2017-Dec-09 22:30N 18°20' W 064°57'0 0.0
2017-Dec-09 22:01N 18°20' W 064°57'0 0.0
2017-Dec-09 21:30N 18°20' W 064°57'0 0.0
2017-Dec-09 20:55N 18°20' W 064°57'0 0.0
2017-Dec-09 20:30N 18°20' W 064°57'0 0.0
2017-Dec-09 20:00N 18°20' W 064°57'0 0.0
2017-Dec-09 19:30N 18°20' W 064°57'0 0.0
2017-Dec-09 19:00N 18°20' W 064°57'0 0.0
2017-Dec-09 18:30N 18°20' W 064°57'0 0.0
2017-Dec-09 18:00N 18°20' W 064°57'0 0.0
2017-Dec-09 17:30N 18°20' W 064°57'0 0.0
2017-Dec-09 17:00N 18°20' W 064°57'0 0.0
2017-Dec-09 16:30N 18°20' W 064°57'0 0.0
2017-Dec-09 16:00N 18°20' W 064°57'0 0.0
2017-Dec-09 15:27N 18°20' W 064°57'0 0.0
2017-Dec-09 15:01N 18°20' W 064°57'0 0.0
2017-Dec-09 14:30N 18°20' W 064°57'0 0.0
2017-Dec-09 14:01N 18°20' W 064°57'0 0.0
2017-Dec-09 13:30N 18°20' W 064°57'0 0.0
2017-Dec-09 13:00N 18°20' W 064°57'0 0.0
2017-Dec-09 12:29N 18°20' W 064°57'0 0.0
2017-Dec-09 12:00N 18°20' W 064°57'0 0.0
2017-Dec-09 11:30N 18°20' W 064°57'0 0.0
2017-Dec-09 11:00N 18°20' W 064°57'0 0.0
2017-Dec-09 10:30N 18°20' W 064°57'0 0.0
2017-Dec-09 10:01N 18°20' W 064°57'0 0.0
2017-Dec-09 09:31N 18°20' W 064°57'0 0.0
2017-Dec-09 09:01N 18°20' W 064°57'0 0.0
2017-Dec-09 08:31N 18°20' W 064°57'0 0.0
2017-Dec-09 08:01N 18°20' W 064°57'0 0.0
2017-Dec-09 07:31N 18°20' W 064°57'0 0.0
2017-Dec-09 07:00N 18°20' W 064°57'0 0.0
2017-Dec-09 06:31N 18°20' W 064°57'0 0.0
2017-Dec-09 06:00N 18°20' W 064°57'0 0.0
2017-Dec-09 05:31N 18°20' W 064°57'0 0.0
2017-Dec-09 05:01N 18°20' W 064°57'0 0.0
2017-Dec-09 04:30N 18°20' W 064°57'0 0.0
2017-Dec-09 04:01N 18°20' W 064°57'0 0.0
2017-Dec-09 03:31N 18°20' W 064°57'0 0.0
2017-Dec-09 03:01N 18°20' W 064°57'0 0.0
2017-Dec-09 02:30N 18°20' W 064°57'0 0.0
2017-Dec-09 02:01N 18°20' W 064°57'0 0.0
2017-Dec-09 01:30N 18°20' W 064°57'0 0.0
2017-Dec-09 01:01N 18°20' W 064°57'0 0.0
2017-Dec-09 00:30N 18°20' W 064°57'0 0.0
2017-Dec-09 00:01N 18°20' W 064°57'0 0.0
2017-Dec-08 23:30N 18°20' W 064°57'0 0.0
2017-Dec-08 23:01N 18°20' W 064°57'0 0.0
2017-Dec-08 22:31N 18°20' W 064°57'0 0.5
2017-Dec-08 22:00N 18°20' W 064°57'1 3.0
2017-Dec-08 21:31N 18°20' W 064°58'1 2.1
2017-Dec-08 21:01N 18°20' W 064°59'0 0.4
2017-Dec-08 20:30N 18°20' W 064°59'0 0.1
2017-Dec-08 20:01N 18°20' W 064°59'0 0.0
2017-Dec-08 19:30N 18°20' W 064°59'0 0.0
2017-Dec-08 19:00N 18°20' W 064°59'0 1.0
2017-Dec-08 18:31N 18°20' W 064°59'2 4.9
2017-Dec-08 18:01N 18°20' W 064°57'0 0.1
2017-Dec-08 17:31N 18°20' W 064°57'0 0.1
2017-Dec-08 17:00N 18°20' W 064°57'0 0.0
2017-Dec-08 16:30N 18°20' W 064°57'0 0.1
2017-Dec-08 16:00N 18°20' W 064°57'0 0.1
2017-Dec-08 15:30N 18°20' W 064°57'0 0.0
2017-Dec-08 15:00N 18°20' W 064°57'0 0.0
2017-Dec-08 14:31N 18°20' W 064°57'0 0.0
2017-Dec-08 14:01N 18°20' W 064°57'0 0.0
2017-Dec-07 02:14N 18°20' W 064°57'0 0.0
2017-Dec-07 02:01N 18°20' W 064°57'0 0.0
2017-Dec-07 01:31N 18°20' W 064°57'0 0.0
2017-Dec-07 01:00N 18°20' W 064°57'0 0.0
2017-Dec-07 00:31N 18°20' W 064°57'0 0.0
2017-Dec-07 00:01N 18°20' W 064°57'0 0.5
2017-Dec-06 23:31N 18°20' W 064°57'0 0.2
2017-Dec-06 23:01N 18°20' W 064°57'0 0.0
2017-Dec-06 22:30N 18°20' W 064°57'0 0.0
2017-Dec-06 22:01N 18°20' W 064°57'0 0.0
2017-Dec-06 21:29N 18°20' W 064°57'0 0.0
2017-Dec-06 21:00N 18°20' W 064°57'  
2017-Dec-04 10:30N 18°20' W 064°57'0 0.0
2017-Dec-04 10:00N 18°20' W 064°57'0 0.0
2017-Dec-04 09:28N 18°20' W 064°57'0 0.0
2017-Dec-04 09:00N 18°20' W 064°57'0 0.0
2017-Dec-04 08:30N 18°20' W 064°57'0 0.0
2017-Dec-04 07:56N 18°20' W 064°57'0 0.0
2017-Dec-04 07:30N 18°20' W 064°57'0 0.0
2017-Dec-04 06:57N 18°20' W 064°57'0 0.0
2017-Dec-04 06:30N 18°20' W 064°57'0 0.0
2017-Dec-04 06:00N 18°20' W 064°57'0 0.0
2017-Dec-04 05:31N 18°20' W 064°57'0 0.0
2017-Dec-04 05:00N 18°20' W 064°57'0 0.0
2017-Dec-04 04:31N 18°20' W 064°57'0 0.0
2017-Dec-04 04:00N 18°20' W 064°57'0 0.0
2017-Dec-04 03:30N 18°20' W 064°57'0 0.0
2017-Dec-04 03:00N 18°20' W 064°57'0 0.0
2017-Dec-04 02:30N 18°20' W 064°57'0 0.0
2017-Dec-04 02:01N 18°20' W 064°57'0 0.0
2017-Dec-04 01:29N 18°20' W 064°57'0 0.0
2017-Dec-04 01:00N 18°20' W 064°57'0 0.0
2017-Dec-04 00:30N 18°20' W 064°57'0 0.0
2017-Dec-04 00:00N 18°20' W 064°57'0 0.0
2017-Dec-03 23:31N 18°20' W 064°57'0 0.0
2017-Dec-03 23:01N 18°20' W 064°57'0 0.0
2017-Dec-03 22:30N 18°20' W 064°57'0 0.0
2017-Dec-03 21:58N 18°20' W 064°57'0 0.0
2017-Dec-03 21:31N 18°20' W 064°57'0 0.0
2017-Dec-03 21:01N 18°20' W 064°57'0 0.0
2017-Dec-03 20:31N 18°20' W 064°57'0 0.0
2017-Dec-03 20:01N 18°20' W 064°57'0 0.0
2017-Dec-03 19:31N 18°20' W 064°57'  

Dump ship's entire track history